Time;durP1;ratioP1;P1;durP2;ratioP2;P2;SDS_P1;SDS_P2;PMS_P1;PMS_P2;Temp;Humidity;BMP_temperature;BMP_pressure;BME280_temperature;BME280_humidity;BME280_pressure;Samples;Min_cycle;Max_cycle;Signal;HPM_P1;HPM_P2
2023/05/05 00:01:32;;;;;;;6.10;3.40;;;;;;;;;;5075389;28;20203;-47
2023/05/05 00:03:59;;;;;;;4.95;2.92;;;;;;;;;;5088709;28;20213;-48
2023/05/05 00:06:27;;;;;;;5.57;2.65;;;;;;;;;;5095602;28;20203;-49
2023/05/05 00:08:55;;;;;;;5.15;2.75;;;;;;;;;;5095824;28;20206;-49
2023/05/05 00:11:22;;;;;;;16.60;8.52;;;;;;;;;;5095270;28;20255;-48
2023/05/05 00:13:50;;;;;;;222.48;60.95;;;;;;;;;;5095186;28;20207;-48
2023/05/05 00:16:17;;;;;;;136.50;38.55;;;;;;;;;;5095387;28;20210;-47
2023/05/05 00:18:44;;;;;;;60.30;17.92;;;;;;;;;;5095201;28;20592;-47
2023/05/05 00:21:11;;;;;;;52.63;17.25;;;;;;;;;;5095085;28;20199;-48
2023/05/05 00:23:39;;;;;;;33.38;11.18;;;;;;;;;;5094876;28;20210;-47
2023/05/05 00:26:05;;;;;;;37.17;14.23;;;;;;;;;;5095032;28;20259;-48
2023/05/05 00:28:33;;;;;;;20.65;8.98;;;;;;;;;;5094950;28;20565;-47
2023/05/05 00:31:00;;;;;;;10.75;5.63;;;;;;;;;;5094829;28;20205;-48
2023/05/05 00:33:27;;;;;;;23.65;9.70;;;;;;;;;;5094870;28;20205;-49
2023/05/05 00:35:54;;;;;;;12.38;4.97;;;;;;;;;;5094665;28;20229;-47
2023/05/05 00:38:22;;;;;;;12.25;5.03;;;;;;;;;;5095011;28;20264;-47
2023/05/05 00:40:49;;;;;;;6.68;4.25;;;;;;;;;;5095192;28;20576;-47
2023/05/05 00:43:16;;;;;;;5.82;2.83;;;;;;;;;;5094844;28;20201;-48
2023/05/05 00:45:46;;;;;;;6.55;2.75;;;;;;;;;;5094605;28;20778;-47
2023/05/05 00:48:15;;;;;;;7.40;3.60;;;;;;;;;;5094623;28;20202;-47
2023/05/05 00:50:43;;;;;;;3.88;2.85;;;;;;;;;;5093678;28;20199;-47
2023/05/05 00:53:11;;;;;;;8.18;2.97;;;;;;;;;;5076724;28;20659;-47
2023/05/05 00:55:38;;;;;;;7.10;3.60;;;;;;;;;;5094354;28;20592;-47
2023/05/05 00:58:05;;;;;;;7.55;2.90;;;;;;;;;;5094372;28;20202;-48
2023/05/05 01:00:33;;;;;;;4.57;2.70;;;;;;;;;;5093457;28;20604;-47
2023/05/05 01:03:00;;;;;;;6.78;3.00;;;;;;;;;;5093176;28;20292;-47
2023/05/05 01:05:34;;;;;;;5.60;2.70;;;;;;;;;;5094498;28;20210;-49
2023/05/05 01:08:16;;;;;;;5.68;3.20;;;;;;;;;;5093289;28;20203;-47
2023/05/05 01:10:47;;;;;;;6.28;3.38;;;;;;;;;;5093025;28;20202;-47
2023/05/05 01:13:15;;;;;;;4.95;3.10;;;;;;;;;;5093338;28;20194;-47
2023/05/05 01:15:49;;;;;;;7.50;3.25;;;;;;;;;;5092883;28;20254;-48
2023/05/05 01:18:42;;;;;;;6.28;3.38;;;;;;;;;;5093200;28;20213;-48
2023/05/05 01:21:13;;;;;;;5.90;3.20;;;;;;;;;;5094147;28;20301;-47
2023/05/05 01:24:13;;;;;;;6.55;2.95;;;;;;;;;;5094226;28;20205;-47
2023/05/05 01:27:05;;;;;;;5.15;2.92;;;;;;;;;;5077120;28;20206;-47
2023/05/05 01:29:54;;;;;;;5.72;2.80;;;;;;;;;;5075436;28;20211;-47
2023/05/05 01:32:26;;;;;;;4.10;2.22;;;;;;;;;;5094147;28;20554;-47
2023/05/05 01:35:02;;;;;;;4.22;2.63;;;;;;;;;;5092539;28;20256;-47
2023/05/05 01:37:37;;;;;;;4.95;2.50;;;;;;;;;;5092900;28;20674;-48
2023/05/05 01:40:06;;;;;;;4.97;2.45;;;;;;;;;;5092521;28;20268;-47
2023/05/05 01:42:35;;;;;;;5.78;2.97;;;;;;;;;;5094194;28;20673;-47
2023/05/05 01:45:05;;;;;;;5.07;3.15;;;;;;;;;;5075913;28;20202;-47
2023/05/05 01:47:32;;;;;;;8.15;3.35;;;;;;;;;;5075966;28;20203;-46
2023/05/05 01:50:00;;;;;;;7.22;2.97;;;;;;;;;;5075987;28;20659;-48
2023/05/05 01:52:28;;;;;;;7.22;3.20;;;;;;;;;;5092263;28;20248;-47
2023/05/05 01:54:57;;;;;;;6.25;3.13;;;;;;;;;;5092380;28;20622;-47
2023/05/05 01:57:25;;;;;;;5.82;3.50;;;;;;;;;;5075953;28;20198;-48
2023/05/05 01:59:53;;;;;;;10.10;5.35;;;;;;;;;;5092547;28;20576;-48
2023/05/05 02:02:21;;;;;;;14.20;6.93;;;;;;;;;;5092367;28;20210;-47
2023/05/05 02:04:50;;;;;;;8.18;4.47;;;;;;;;;;5092368;28;20560;-47
2023/05/05 02:07:17;;;;;;;9.10;4.82;;;;;;;;;;5092515;28;20222;-48
2023/05/05 02:09:45;;;;;;;9.23;4.80;;;;;;;;;;5092463;28;20555;-47
2023/05/05 02:12:12;;;;;;;9.25;5.22;;;;;;;;;;5092409;28;20552;-47
2023/05/05 02:14:40;;;;;;;10.30;5.47;;;;;;;;;;5092203;28;20296;-48
2023/05/05 02:17:08;;;;;;;6.75;4.15;;;;;;;;;;5092215;28;20199;-47
2023/05/05 02:19:38;;;;;;;4.35;2.50;;;;;;;;;;5092294;28;20210;-47
2023/05/05 02:22:05;;;;;;;8.02;2.90;;;;;;;;;;5093441;28;20206;-47
2023/05/05 02:24:33;;;;;;;3.20;2.50;;;;;;;;;;5093261;28;20203;-48
2023/05/05 02:27:02;;;;;;;4.40;2.60;;;;;;;;;;5094907;28;20202;-48
2023/05/05 02:29:49;;;;;;;5.25;3.30;;;;;;;;;;5079202;28;20194;-47
2023/05/05 02:32:22;;;;;;;4.20;2.17;;;;;;;;;;5097365;28;20206;-47
2023/05/05 02:34:50;;;;;;;4.70;2.42;;;;;;;;;;5095736;28;20683;-47
2023/05/05 02:37:20;;;;;;;3.97;2.35;;;;;;;;;;5079104;28;20252;-48
2023/05/05 02:39:57;;;;;;;6.03;2.25;;;;;;;;;;5079722;28;20234;-48
2023/05/05 02:42:31;;;;;;;4.68;2.65;;;;;;;;;;5079488;28;20196;-48
2023/05/05 02:45:05;;;;;;;4.70;2.40;;;;;;;;;;5079154;28;20187;-47
2023/05/05 02:47:36;;;;;;;5.78;3.00;;;;;;;;;;5079180;28;20202;-47
2023/05/05 02:50:06;;;;;;;7.53;2.83;;;;;;;;;;5095463;28;20214;-47
2023/05/05 02:52:37;;;;;;;5.78;2.55;;;;;;;;;;5095502;28;20221;-49
2023/05/05 02:55:05;;;;;;;4.28;2.45;;;;;;;;;;5078628;28;20226;-47
2023/05/05 02:57:50;;;;;;;5.03;2.83;;;;;;;;;;5096836;28;20607;-48
2023/05/05 03:00:23;;;;;;;4.82;2.65;;;;;;;;;;5078688;28;20195;-47
2023/05/05 03:03:05;;;;;;;5.35;2.78;;;;;;;;;;5096558;28;20298;-48
2023/05/05 03:06:00;;;;;;;5.20;2.75;;;;;;;;;;5096634;28;20237;-47
2023/05/05 03:08:41;;;;;;;4.22;2.63;;;;;;;;;;5095232;28;20204;-47
2023/05/05 03:11:18;;;;;;;6.40;2.75;;;;;;;;;;5078689;28;20194;-48
2023/05/05 03:13:50;;;;;;;3.88;2.20;;;;;;;;;;5095032;28;20280;-48
2023/05/05 03:16:22;;;;;;;3.42;2.60;;;;;;;;;;5095152;28;20288;-47
2023/05/05 03:18:50;;;;;;;5.30;2.65;;;;;;;;;;5078438;28;20315;-47
2023/05/05 03:21:17;;;;;;;5.18;2.90;;;;;;;;;;5094971;28;20198;-48
2023/05/05 03:23:44;;;;;;;3.92;2.38;;;;;;;;;;5095009;28;20198;-47
2023/05/05 03:26:18;;;;;;;4.30;2.40;;;;;;;;;;5094971;28;20246;-48
2023/05/05 03:28:45;;;;;;;5.15;2.47;;;;;;;;;;5092320;28;20207;-53
2023/05/05 03:31:19;;;;;;;3.40;2.40;;;;;;;;;;5082088;28;20202;-47
2023/05/05 03:33:51;;;;;;;3.65;2.30;;;;;;;;;;5089448;28;20571;-48
2023/05/05 03:36:22;;;;;;;5.28;2.40;;;;;;;;;;5084277;28;20223;-48
2023/05/05 03:38:49;;;;;;;4.80;2.20;;;;;;;;;;5093235;28;20202;-48
2023/05/05 03:41:19;;;;;;;4.28;2.28;;;;;;;;;;5089962;28;20252;-47
2023/05/05 03:43:46;;;;;;;3.83;2.35;;;;;;;;;;5089736;28;20219;-50
2023/05/05 03:46:14;;;;;;;7.00;2.50;;;;;;;;;;5092548;28;20210;-48
2023/05/05 03:48:43;;;;;;;5.05;2.20;;;;;;;;;;5090973;28;20289;-48
2023/05/05 03:51:12;;;;;;;3.65;2.10;;;;;;;;;;5093718;28;20207;-49
2023/05/05 03:53:39;;;;;;;3.83;2.00;;;;;;;;;;5107200;28;20195;-47
2023/05/05 03:56:08;;;;;;;3.53;2.03;;;;;;;;;;5091589;28;20211;-49
2023/05/05 03:58:35;;;;;;;5.18;2.40;;;;;;;;;;5090117;28;20229;-47
2023/05/05 04:01:02;;;;;;;4.78;2.30;;;;;;;;;;5088280;28;20196;-48
2023/05/05 04:03:29;;;;;;;3.47;1.98;;;;;;;;;;5083332;28;20242;-49
2023/05/05 04:05:57;;;;;;;3.15;2.05;;;;;;;;;;5077747;28;20211;-47
2023/05/05 04:08:24;;;;;;;4.47;2.42;;;;;;;;;;5092961;28;20207;-47
2023/05/05 04:10:52;;;;;;;4.68;2.40;;;;;;;;;;5095501;28;20233;-48
2023/05/05 04:13:19;;;;;;;3.47;2.17;;;;;;;;;;5089711;28;20272;-48
2023/05/05 04:15:47;;;;;;;3.80;2.60;;;;;;;;;;5077316;28;20289;-47
2023/05/05 04:18:16;;;;;;;3.72;2.00;;;;;;;;;;5093264;28;20305;-46
2023/05/05 04:20:43;;;;;;;3.72;1.85;;;;;;;;;;5093533;28;20219;-47
2023/05/05 04:23:11;;;;;;;4.82;2.42;;;;;;;;;;5093003;28;20223;-48
2023/05/05 04:25:39;;;;;;;5.55;2.33;;;;;;;;;;5094270;28;20222;-48
2023/05/05 04:28:06;;;;;;;4.32;2.25;;;;;;;;;;5092375;28;20309;-47
2023/05/05 04:30:33;;;;;;;6.55;3.00;;;;;;;;;;5088872;28;20691;-47
2023/05/05 04:33:01;;;;;;;6.03;3.15;;;;;;;;;;5090013;28;20230;-47
2023/05/05 04:35:29;;;;;;;4.70;2.85;;;;;;;;;;5093036;28;20230;-47
2023/05/05 04:37:56;;;;;;;4.75;2.90;;;;;;;;;;5092726;28;20223;-47
2023/05/05 04:40:25;;;;;;;5.70;3.08;;;;;;;;;;5094211;28;20239;-46
2023/05/05 04:42:53;;;;;;;6.13;3.15;;;;;;;;;;5092496;28;20225;-48
2023/05/05 04:45:21;;;;;;;6.95;3.60;;;;;;;;;;5093157;28;20230;-48
2023/05/05 04:47:48;;;;;;;6.10;3.53;;;;;;;;;;5086893;28;20303;-47
2023/05/05 04:50:16;;;;;;;28.92;20.60;;;;;;;;;;5080038;28;20250;-47
2023/05/05 04:52:43;;;;;;;7.93;3.92;;;;;;;;;;5071458;28;20254;-50
2023/05/05 04:55:10;;;;;;;6.15;3.17;;;;;;;;;;5071888;28;20692;-50
2023/05/05 04:57:38;;;;;;;7.15;2.35;;;;;;;;;;5086505;28;20223;-50
2023/05/05 05:00:06;;;;;;;5.35;2.95;;;;;;;;;;5092262;28;20227;-50
2023/05/05 05:02:33;;;;;;;4.63;2.85;;;;;;;;;;5092133;28;20254;-48
2023/05/05 05:05:01;;;;;;;4.65;2.80;;;;;;;;;;5093284;28;20234;-50
2023/05/05 05:07:28;;;;;;;6.25;2.85;;;;;;;;;;5092412;28;20260;-48
2023/05/05 05:09:56;;;;;;;4.88;2.80;;;;;;;;;;5090649;28;20218;-48
2023/05/05 05:12:23;;;;;;;4.78;2.42;;;;;;;;;;5091846;28;20248;-48
2023/05/05 05:14:51;;;;;;;6.13;2.53;;;;;;;;;;5091919;28;20590;-48
2023/05/05 05:17:19;;;;;;;3.58;2.45;;;;;;;;;;5089425;28;20679;-48
2023/05/05 05:19:46;;;;;;;5.50;2.60;;;;;;;;;;5092083;28;20226;-46
2023/05/05 05:22:16;;;;;;;5.00;2.70;;;;;;;;;;5091020;28;20340;-55
2023/05/05 05:24:44;;;;;;;4.57;2.25;;;;;;;;;;5091168;28;20218;-47
2023/05/05 05:27:12;;;;;;;3.83;2.45;;;;;;;;;;5090561;28;20682;-48
2023/05/05 05:29:43;;;;;;;4.88;2.60;;;;;;;;;;5090732;28;20202;-48
2023/05/05 05:32:10;;;;;;;4.65;2.60;;;;;;;;;;5091489;28;20272;-47
2023/05/05 05:34:38;;;;;;;4.40;2.47;;;;;;;;;;5091357;28;20214;-48
2023/05/05 05:37:07;;;;;;;5.82;2.90;;;;;;;;;;5091734;28;20690;-46
2023/05/05 05:39:35;;;;;;;6.90;3.22;;;;;;;;;;5090969;28;20202;-46
2023/05/05 05:42:03;;;;;;;5.00;2.75;;;;;;;;;;5091292;28;20206;-47
2023/05/05 05:44:31;;;;;;;7.93;3.25;;;;;;;;;;5092077;28;20207;-47
2023/05/05 05:46:58;;;;;;;4.38;2.78;;;;;;;;;;5093319;28;20199;-47
2023/05/05 05:49:26;;;;;;;3.63;2.75;;;;;;;;;;5092447;28;20694;-47
2023/05/05 05:51:54;;;;;;;4.57;2.90;;;;;;;;;;5092339;28;20195;-48
2023/05/05 05:54:21;;;;;;;2.45;2.25;;;;;;;;;;5092784;28;20210;-48
2023/05/05 05:56:49;;;;;;;4.57;2.63;;;;;;;;;;5092725;28;20583;-49
2023/05/05 05:59:16;;;;;;;4.15;2.33;;;;;;;;;;5092450;28;20210;-49
2023/05/05 06:01:43;;;;;;;4.60;2.58;;;;;;;;;;5091608;28;20214;-47
2023/05/05 06:04:12;;;;;;;3.55;2.30;;;;;;;;;;5092417;28;20198;-48
2023/05/05 06:06:39;;;;;;;4.05;2.53;;;;;;;;;;5092302;28;20209;-46
2023/05/05 06:09:07;;;;;;;4.00;2.53;;;;;;;;;;5093410;28;20555;-47
2023/05/05 06:11:35;;;;;;;4.03;2.95;;;;;;;;;;5092419;28;20206;-48
2023/05/05 06:14:03;;;;;;;5.78;2.70;;;;;;;;;;5092186;28;20690;-48
2023/05/05 06:16:30;;;;;;;4.88;2.97;;;;;;;;;;5092433;28;20216;-47
2023/05/05 06:19:01;;;;;;;4.53;2.80;;;;;;;;;;5092422;28;20216;-47
2023/05/05 06:21:28;;;;;;;5.28;2.63;;;;;;;;;;5092374;28;20256;-48
2023/05/05 06:23:55;;;;;;;4.80;2.75;;;;;;;;;;5092056;28;20700;-48
2023/05/05 06:26:23;;;;;;;4.13;2.60;;;;;;;;;;5092460;28;20203;-48
2023/05/05 06:28:50;;;;;;;3.92;2.72;;;;;;;;;;5093161;28;20682;-49
2023/05/05 06:31:17;;;;;;;4.00;2.55;;;;;;;;;;5093326;28;20255;-47
2023/05/05 06:33:44;;;;;;;6.78;2.83;;;;;;;;;;5093577;28;20210;-47
2023/05/05 06:36:11;;;;;;;3.97;2.60;;;;;;;;;;5093404;28;20295;-47
2023/05/05 06:38:38;;;;;;;5.50;2.58;;;;;;;;;;5093403;28;20207;-47
2023/05/05 06:41:05;;;;;;;4.82;2.10;;;;;;;;;;5093616;28;20615;-47
2023/05/05 06:43:33;;;;;;;5.85;2.38;;;;;;;;;;5093018;28;20202;-48
2023/05/05 06:46:05;;;;;;;3.65;2.92;;;;;;;;;;5091997;28;20213;-47
2023/05/05 06:48:33;;;;;;;4.82;2.40;;;;;;;;;;5093270;28;20206;-48
2023/05/05 06:51:00;;;;;;;4.80;2.10;;;;;;;;;;5093030;28;20213;-47
2023/05/05 06:53:27;;;;;;;3.28;2.20;;;;;;;;;;5093110;28;20690;-47
2023/05/05 06:55:54;;;;;;;3.22;2.17;;;;;;;;;;5093123;28;20596;-48
2023/05/05 06:58:22;;;;;;;8.02;3.00;;;;;;;;;;5092904;28;20210;-47
2023/05/05 07:00:49;;;;;;;6.05;2.95;;;;;;;;;;5093036;28;20210;-47
2023/05/05 07:03:17;;;;;;;4.75;2.60;;;;;;;;;;5093248;28;20599;-48
2023/05/05 07:05:44;;;;;;;6.40;3.47;;;;;;;;;;5093140;28;20198;-47
2023/05/05 07:08:11;;;;;;;4.35;2.70;;;;;;;;;;5092791;28;20205;-47
2023/05/05 07:10:38;;;;;;;3.58;2.40;;;;;;;;;;5092952;28;20280;-48
2023/05/05 07:13:07;;;;;;;3.58;1.90;;;;;;;;;;5095702;28;20225;-48
2023/05/05 07:15:34;;;;;;;3.90;2.28;;;;;;;;;;5096924;28;20648;-47
2023/05/05 07:18:01;;;;;;;2.88;1.90;;;;;;;;;;5095416;28;20202;-48
2023/05/05 07:20:28;;;;;;;3.85;2.53;;;;;;;;;;5096884;28;20241;-47
2023/05/05 07:22:56;;;;;;;2.17;1.83;;;;;;;;;;5096308;28;20202;-48
2023/05/05 07:25:23;;;;;;;3.13;1.80;;;;;;;;;;5096376;28;20202;-47
2023/05/05 07:27:50;;;;;;;3.42;2.10;;;;;;;;;;5096207;28;20210;-49
2023/05/05 07:30:17;;;;;;;3.53;2.22;;;;;;;;;;5096339;28;20538;-48
2023/05/05 07:32:46;;;;;;;3.05;1.92;;;;;;;;;;5096257;28;20203;-47
2023/05/05 07:35:12;;;;;;;2.10;1.52;;;;;;;;;;5096367;28;20198;-47
2023/05/05 07:37:40;;;;;;;3.05;1.88;;;;;;;;;;5095857;28;20706;-48
2023/05/05 07:40:07;;;;;;;2.88;1.92;;;;;;;;;;5096011;28;20314;-47
2023/05/05 07:42:35;;;;;;;4.47;2.45;;;;;;;;;;5095768;28;20671;-47
2023/05/05 07:45:04;;;;;;;4.28;2.40;;;;;;;;;;5096014;28;20637;-48
2023/05/05 07:47:31;;;;;;;2.90;1.90;;;;;;;;;;5096020;28;20203;-48
2023/05/05 07:49:59;;;;;;;4.03;2.10;;;;;;;;;;5095728;28;20673;-48
2023/05/05 07:52:26;;;;;;;3.70;2.42;;;;;;;;;;5095675;28;20209;-47
2023/05/05 07:55:13;;;;;;;4.38;2.35;;;;;;;;;;5095684;28;20199;-49
2023/05/05 07:57:41;;;;;;;2.60;2.00;;;;;;;;;;5095429;28;20280;-48
2023/05/05 08:00:09;;;;;;;3.72;1.85;;;;;;;;;;5095836;28;20252;-47
2023/05/05 08:02:40;;;;;;;5.35;2.10;;;;;;;;;;5095726;28;20198;-48
2023/05/05 08:05:07;;;;;;;4.03;2.13;;;;;;;;;;5095500;28;20203;-48
2023/05/05 08:07:39;;;;;;;2.95;1.80;;;;;;;;;;5095283;28;20210;-50
2023/05/05 08:10:09;;;;;;;2.55;1.80;;;;;;;;;;5095955;28;20210;-47
2023/05/05 08:12:36;;;;;;;2.88;1.92;;;;;;;;;;5095528;28;20218;-47
2023/05/05 08:15:04;;;;;;;2.72;1.73;;;;;;;;;;5094970;28;20250;-47
2023/05/05 08:17:50;;;;;;;3.33;2.05;;;;;;;;;;5095398;28;20226;-47
2023/05/05 08:20:19;;;;;;;4.00;1.75;;;;;;;;;;5095559;28;20187;-47
2023/05/05 08:22:46;;;;;;;4.40;1.70;;;;;;;;;;5095295;28;20202;-48
2023/05/05 08:25:13;;;;;;;3.22;1.77;;;;;;;;;;5094938;28;20566;-48
2023/05/05 08:27:41;;;;;;;4.85;1.60;;;;;;;;;;5095247;28;20217;-48
2023/05/05 08:30:09;;;;;;;3.15;1.67;;;;;;;;;;5094963;28;20203;-48
2023/05/05 08:32:37;;;;;;;2.45;1.80;;;;;;;;;;5094789;28;20655;-49
2023/05/05 08:35:05;;;;;;;3.33;1.80;;;;;;;;;;5095351;28;20195;-49
2023/05/05 08:37:33;;;;;;;3.35;1.58;;;;;;;;;;5095005;28;20254;-47
2023/05/05 08:40:00;;;;;;;3.22;1.73;;;;;;;;;;5095007;28;20240;-50
2023/05/05 08:42:28;;;;;;;1.90;1.35;;;;;;;;;;5094637;28;20199;-49
2023/05/05 08:45:08;;;;;;;2.42;1.55;;;;;;;;;;5094667;28;20194;-47
2023/05/05 08:47:37;;;;;;;1.50;1.40;;;;;;;;;;5094901;28;20205;-48
2023/05/05 08:50:08;;;;;;;2.90;1.80;;;;;;;;;;5095105;28;20251;-48
2023/05/05 08:52:42;;;;;;;2.47;1.58;;;;;;;;;;5094500;28;20331;-48
2023/05/05 08:55:18;;;;;;;1.55;1.10;;;;;;;;;;5094969;28;20194;-48
2023/05/05 08:57:55;;;;;;;4.28;1.60;;;;;;;;;;5094380;28;20717;-48
2023/05/05 09:00:23;;;;;;;2.58;1.48;;;;;;;;;;5094745;28;20216;-48
2023/05/05 09:02:51;;;;;;;2.90;1.40;;;;;;;;;;5094376;28;20195;-49
2023/05/05 09:05:18;;;;;;;2.17;1.40;;;;;;;;;;5093326;28;20199;-48
2023/05/05 09:07:46;;;;;;;1.50;1.38;;;;;;;;;;5094497;28;20207;-47
2023/05/05 09:10:13;;;;;;;2.92;1.77;;;;;;;;;;5094459;28;20207;-47
2023/05/05 09:12:40;;;;;;;2.03;1.45;;;;;;;;;;5094374;28;20209;-48
2023/05/05 09:15:10;;;;;;;2.60;1.40;;;;;;;;;;5094497;28;20217;-48
2023/05/05 09:17:38;;;;;;;1.83;1.23;;;;;;;;;;5094269;28;20230;-49
2023/05/05 09:20:09;;;;;;;2.03;1.70;;;;;;;;;;5094049;28;20199;-48
2023/05/05 09:22:44;;;;;;;1.48;1.13;;;;;;;;;;5094250;28;20213;-48
2023/05/05 09:25:16;;;;;;;1.45;1.15;;;;;;;;;;5094559;28;20201;-48
2023/05/05 09:27:45;;;;;;;2.50;1.30;;;;;;;;;;5094363;28;20198;-48
2023/05/05 09:30:16;;;;;;;2.45;1.40;;;;;;;;;;5094149;28;20222;-48
2023/05/05 09:32:45;;;;;;;2.30;1.30;;;;;;;;;;5093828;28;20660;-48
2023/05/05 09:35:12;;;;;;;1.30;1.20;;;;;;;;;;5093065;28;20230;-48
2023/05/05 09:37:40;;;;;;;2.25;1.17;;;;;;;;;;5094030;28;20272;-48
2023/05/05 09:40:08;;;;;;;2.45;1.73;;;;;;;;;;5093739;28;20703;-49
2023/05/05 09:42:36;;;;;;;2.10;1.20;;;;;;;;;;5093660;28;20202;-48
2023/05/05 09:45:24;;;;;;;1.70;1.13;;;;;;;;;;5093750;28;20205;-47
2023/05/05 09:47:52;;;;;;;2.22;1.50;;;;;;;;;;5094211;28;20297;-47
2023/05/05 09:50:28;;;;;;;1.70;1.33;;;;;;;;;;5084894;28;20633;-47
2023/05/05 09:52:59;;;;;;;1.75;1.20;;;;;;;;;;5075938;28;20267;-48
2023/05/05 09:55:27;;;;;;;2.05;1.20;;;;;;;;;;5092189;28;20222;-48
2023/05/05 09:57:54;;;;;;;1.98;1.38;;;;;;;;;;5093416;28;20219;-48
2023/05/05 10:00:36;;;;;;;2.53;1.20;;;;;;;;;;5088150;28;20295;-48
2023/05/05 10:03:03;;;;;;;1.70;1.25;;;;;;;;;;5092855;28;20225;-48
2023/05/05 10:05:30;;;;;;;2.40;1.40;;;;;;;;;;5092326;28;20248;-47
2023/05/05 10:08:11;;;;;;;2.47;1.17;;;;;;;;;;5092989;28;20234;-47
2023/05/05 10:10:46;;;;;;;1.95;1.13;;;;;;;;;;5093219;28;20221;-48
2023/05/05 10:13:14;;;;;;;1.55;0.93;;;;;;;;;;5091612;28;20718;-51
2023/05/05 10:15:43;;;;;;;2.30;1.30;;;;;;;;;;5089800;27;20211;-50
2023/05/05 10:18:13;;;;;;;1.20;0.95;;;;;;;;;;5091455;28;20234;-50
2023/05/05 10:20:42;;;;;;;2.00;1.05;;;;;;;;;;5091255;28;20221;-51
2023/05/05 10:23:14;;;;;;;1.98;1.33;;;;;;;;;;5088920;28;20218;-48
2023/05/05 10:25:50;;;;;;;2.20;1.35;;;;;;;;;;5091646;28;20217;-47
2023/05/05 10:28:23;;;;;;;1.38;1.10;;;;;;;;;;5089937;28;20717;-47
2023/05/05 10:30:52;;;;;;;1.30;1.10;;;;;;;;;;5087903;28;20222;-46
2023/05/05 10:33:22;;;;;;;2.60;1.30;;;;;;;;;;5091223;28;20222;-48
2023/05/05 10:35:54;;;;;;;1.50;1.23;;;;;;;;;;5090341;28;20222;-47
2023/05/05 10:38:22;;;;;;;1.55;1.10;;;;;;;;;;5089875;28;20241;-49
2023/05/05 10:40:53;;;;;;;2.10;1.05;;;;;;;;;;5092341;28;20226;-48
2023/05/05 10:43:20;;;;;;;1.50;1.17;;;;;;;;;;5090776;28;20219;-47
2023/05/05 10:45:47;;;;;;;1.92;1.35;;;;;;;;;;5091912;28;20223;-48
2023/05/05 10:48:21;;;;;;;1.70;1.10;;;;;;;;;;5095170;28;20230;-47
2023/05/05 10:50:57;;;;;;;1.42;0.90;;;;;;;;;;5095302;28;20229;-48
2023/05/05 10:53:28;;;;;;;4.53;1.13;;;;;;;;;;5094616;28;20222;-47
2023/05/05 10:56:06;;;;;;;3.30;1.15;;;;;;;;;;5095151;28;20248;-52
2023/05/05 10:58:35;;;;;;;1.10;1.00;;;;;;;;;;5094769;28;20234;-50
2023/05/05 11:01:33;;;;;;;2.25;1.30;;;;;;;;;;5095428;28;20268;-50
2023/05/05 11:04:21;;;;;;;1.20;1.00;;;;;;;;;;5096031;28;20230;-48
2023/05/05 11:07:06;;;;;;;2.25;1.10;;;;;;;;;;5096143;28;20214;-50
2023/05/05 11:09:53;;;;;;;1.83;1.10;;;;;;;;;;5095976;28;20219;-48
2023/05/05 11:12:20;;;;;;;1.38;1.10;;;;;;;;;;5095810;28;20222;-48
2023/05/05 11:15:23;;;;;;;1.67;0.98;;;;;;;;;;5095723;28;20226;-49
2023/05/05 11:17:50;;;;;;;1.45;1.05;;;;;;;;;;5095882;28;20222;-48
2023/05/05 11:20:38;;;;;;;1.52;1.00;;;;;;;;;;5095900;28;20222;-48
2023/05/05 11:23:05;;;;;;;1.55;0.90;;;;;;;;;;5095955;28;20229;-48
2023/05/05 11:25:33;;;;;;;1.92;1.27;;;;;;;;;;5095679;28;20223;-50
2023/05/05 11:28:15;;;;;;;2.67;0.95;;;;;;;;;;5095506;28;20233;-47
2023/05/05 11:30:54;;;;;;;1.55;1.08;;;;;;;;;;5095501;28;20227;-48
2023/05/05 11:33:28;;;;;;;2.45;1.08;;;;;;;;;;5095303;28;20631;-48
2023/05/05 11:35:56;;;;;;;1.35;0.82;;;;;;;;;;5095604;28;20226;-48
2023/05/05 11:38:51;;;;;;;1.60;1.20;;;;;;;;;;5093291;28;20788;-50
2023/05/05 11:41:39;;;;;;;1.10;0.95;;;;;;;;;;5097792;28;20237;-50
2023/05/05 11:44:13;;;;;;;2.45;1.33;;;;;;;;;;5074701;28;20765;-50
2023/05/05 11:47:03;;;;;;;1.52;0.90;;;;;;;;;;5085519;28;20699;-53
2023/05/05 11:49:34;;;;;;;3.00;1.00;;;;;;;;;;5094688;28;20563;-50
2023/05/05 11:52:06;;;;;;;0.88;0.70;;;;;;;;;;5094841;28;20226;-53
2023/05/05 11:54:34;;;;;;;0.85;0.80;;;;;;;;;;5094896;28;20318;-51
2023/05/05 11:57:07;;;;;;;1.50;1.17;;;;;;;;;;5094963;28;20226;-50
2023/05/05 11:59:36;;;;;;;0.90;0.82;;;;;;;;;;5093448;28;20274;-52
2023/05/05 12:02:03;;;;;;;1.77;1.20;;;;;;;;;;5095358;28;20248;-49
2023/05/05 12:04:30;;;;;;;1.10;1.00;;;;;;;;;;5095083;28;20210;-51
2023/05/05 12:06:58;;;;;;;1.10;1.00;;;;;;;;;;5094920;28;20198;-50
2023/05/05 12:09:25;;;;;;;1.40;1.10;;;;;;;;;;5094838;28;20202;-52
2023/05/05 12:11:58;;;;;;;1.10;0.98;;;;;;;;;;5094809;28;20199;-50
2023/05/05 12:14:26;;;;;;;1.83;1.17;;;;;;;;;;5094043;28;20195;-50
2023/05/05 12:17:05;;;;;;;2.13;0.93;;;;;;;;;;5092403;28;20209;-53
2023/05/05 12:19:32;;;;;;;1.73;0.93;;;;;;;;;;5095452;28;20187;-52
2023/05/05 12:22:00;;;;;;;1.33;1.08;;;;;;;;;;5093596;28;20591;-51
2023/05/05 12:24:29;;;;;;;0.95;0.82;;;;;;;;;;5079868;28;20241;-49
2023/05/05 12:27:09;;;;;;;2.95;1.10;;;;;;;;;;5094356;28;20248;-49
2023/05/05 12:29:38;;;;;;;0.98;0.82;;;;;;;;;;5094594;28;20218;-50
2023/05/05 12:32:05;;;;;;;1.63;0.82;;;;;;;;;;5093582;28;20199;-51
2023/05/05 12:34:32;;;;;;;1.25;0.75;;;;;;;;;;5094953;28;20199;-48
2023/05/05 12:37:00;;;;;;;1.92;1.20;;;;;;;;;;5094086;28;20191;-49
2023/05/05 12:39:36;;;;;;;1.65;1.05;;;;;;;;;;5093127;28;20225;-55
2023/05/05 12:42:04;;;;;;;1.23;0.90;;;;;;;;;;5094093;28;20858;-49
2023/05/05 12:44:35;;;;;;;1.08;0.82;;;;;;;;;;5093916;28;20205;-49
2023/05/05 12:47:02;;;;;;;0.90;0.68;;;;;;;;;;5094726;28;20213;-48
2023/05/05 12:49:33;;;;;;;2.05;1.00;;;;;;;;;;5093700;28;20229;-50
2023/05/05 12:52:00;;;;;;;2.03;1.02;;;;;;;;;;5095192;28;20194;-50
2023/05/05 12:54:30;;;;;;;1.27;0.95;;;;;;;;;;5094515;28;20199;-49
2023/05/05 12:56:58;;;;;;;1.27;1.00;;;;;;;;;;5094432;28;20203;-50
2023/05/05 12:59:26;;;;;;;2.85;1.10;;;;;;;;;;5083559;28;20231;-50
2023/05/05 13:01:57;;;;;;;1.83;0.90;;;;;;;;;;5088061;28;20234;-50
2023/05/05 13:04:26;;;;;;;1.95;1.13;;;;;;;;;;5091738;28;20199;-49
2023/05/05 13:07:13;;;;;;;4.28;1.17;;;;;;;;;;5074079;28;20211;-49
2023/05/05 13:09:40;;;;;;;1.77;1.30;;;;;;;;;;5088200;28;20198;-51
2023/05/05 13:12:10;;;;;;;2.95;1.40;;;;;;;;;;5093825;28;20199;-49
2023/05/05 13:14:39;;;;;;;2.10;0.90;;;;;;;;;;5094317;28;20248;-49
2023/05/05 13:17:07;;;;;;;1.08;0.98;;;;;;;;;;5094072;28;20671;-48
2023/05/05 13:19:40;;;;;;;1.85;1.02;;;;;;;;;;5093990;28;20229;-52
2023/05/05 13:22:11;;;;;;;1.63;1.20;;;;;;;;;;5093962;28;20191;-49
2023/05/05 13:24:39;;;;;;;2.30;1.17;;;;;;;;;;5083935;28;20257;-49
2023/05/05 13:27:18;;;;;;;1.83;1.10;;;;;;;;;;5093719;28;20175;-50
2023/05/05 13:29:45;;;;;;;1.85;0.98;;;;;;;;;;5087772;28;20207;-49
2023/05/05 13:32:12;;;;;;;1.35;1.20;;;;;;;;;;5083643;28;20214;-50
2023/05/05 13:34:41;;;;;;;1.02;0.80;;;;;;;;;;5084739;28;20210;-49
2023/05/05 13:37:08;;;;;;;1.50;1.10;;;;;;;;;;5073244;28;20214;-50
2023/05/05 13:39:35;;;;;;;4.40;1.00;;;;;;;;;;5073053;28;20695;-49
2023/05/05 13:42:03;;;;;;;1.33;0.98;;;;;;;;;;5073820;28;20191;-49
2023/05/05 13:44:30;;;;;;;1.00;0.75;;;;;;;;;;5076659;28;20637;-49
2023/05/05 13:46:57;;;;;;;1.80;1.08;;;;;;;;;;5086186;28;20253;-48
2023/05/05 13:49:24;;;;;;;1.15;1.05;;;;;;;;;;5093402;28;20198;-47
2023/05/05 13:51:51;;;;;;;1.58;0.98;;;;;;;;;;5092393;28;20202;-49
2023/05/05 13:54:18;;;;;;;3.05;0.90;;;;;;;;;;5092355;28;20611;-50
2023/05/05 13:56:46;;;;;;;2.38;1.00;;;;;;;;;;5091924;28;20252;-49
2023/05/05 13:59:13;;;;;;;2.10;1.10;;;;;;;;;;5093058;28;20222;-49
2023/05/05 14:01:40;;;;;;;0.93;0.90;;;;;;;;;;5082976;28;20220;-49
2023/05/05 14:04:07;;;;;;;1.33;0.80;;;;;;;;;;5076210;28;20691;-49
2023/05/05 14:06:35;;;;;;;1.33;0.95;;;;;;;;;;5085508;28;20291;-49
2023/05/05 14:09:04;;;;;;;2.95;1.40;;;;;;;;;;5091464;28;20622;-49
2023/05/05 14:11:32;;;;;;;2.45;1.50;;;;;;;;;;5091791;28;20234;-51
2023/05/05 14:13:59;;;;;;;1.63;0.80;;;;;;;;;;5092589;28;20604;-48
2023/05/05 14:16:26;;;;;;;1.45;0.95;;;;;;;;;;5086265;28;20619;-49
2023/05/05 14:18:53;;;;;;;1.70;1.23;;;;;;;;;;5072728;28;20231;-48
2023/05/05 14:21:21;;;;;;;1.55;1.00;;;;;;;;;;5072350;28;20756;-48
2023/05/05 14:23:48;;;;;;;2.03;1.25;;;;;;;;;;5095081;28;20218;-52
2023/05/05 14:26:15;;;;;;;1.52;1.08;;;;;;;;;;5094840;28;20230;-48
2023/05/05 14:28:43;;;;;;;1.23;0.90;;;;;;;;;;5086344;28;20597;-50
2023/05/05 14:31:10;;;;;;;1.40;0.98;;;;;;;;;;5095742;28;20230;-49
2023/05/05 14:33:37;;;;;;;2.70;1.02;;;;;;;;;;5089547;28;20214;-48
2023/05/05 14:36:05;;;;;;;0.88;0.73;;;;;;;;;;5083412;28;20231;-48
2023/05/05 14:38:32;;;;;;;2.00;1.10;;;;;;;;;;5091817;28;20301;-48
2023/05/05 14:40:59;;;;;;;1.38;1.00;;;;;;;;;;5076956;28;20239;-48
2023/05/05 14:43:26;;;;;;;1.10;0.93;;;;;;;;;;5074077;28;20223;-49
2023/05/05 14:45:54;;;;;;;1.27;0.82;;;;;;;;;;5073804;28;20219;-48
2023/05/05 14:48:21;;;;;;;1.65;0.88;;;;;;;;;;5081478;28;20218;-49
2023/05/05 14:50:48;;;;;;;2.80;1.13;;;;;;;;;;5095232;28;20226;-48
2023/05/05 14:53:17;;;;;;;1.95;1.10;;;;;;;;;;5094277;28;20309;-49
2023/05/05 14:55:45;;;;;;;1.67;1.15;;;;;;;;;;5096410;28;20411;-50
2023/05/05 14:58:12;;;;;;;2.03;0.70;;;;;;;;;;5091617;28;20238;-50
2023/05/05 15:00:39;;;;;;;2.55;1.05;;;;;;;;;;5085152;28;20226;-48